sensor_id;sensor_type;location;lat;lon;timestamp;P1;durP1;ratioP1;P2;durP2;ratioP2
12878;SDS011;20617;49.476;10.986;2023-02-22T00:00:58;12.63;;;8.63;;
12878;SDS011;20617;49.476;10.986;2023-02-22T00:03:10;12.05;;;8.90;;
12878;SDS011;20617;49.476;10.986;2023-02-22T00:05:16;9.48;;;8.10;;
12878;SDS011;20617;49.476;10.986;2023-02-22T00:07:28;11.05;;;8.25;;
12878;SDS011;20617;49.476;10.986;2023-02-22T00:09:32;11.00;;;9.07;;
12878;SDS011;20617;49.476;10.986;2023-02-22T00:11:37;10.77;;;8.35;;
12878;SDS011;20617;49.476;10.986;2023-02-22T00:13:42;12.15;;;8.80;;
12878;SDS011;20617;49.476;10.986;2023-02-22T00:15:47;13.13;;;8.93;;
12878;SDS011;20617;49.476;10.986;2023-02-22T00:17:53;11.00;;;8.52;;
12878;SDS011;20617;49.476;10.986;2023-02-22T00:20:00;14.60;;;9.35;;
12878;SDS011;20617;49.476;10.986;2023-02-22T00:22:08;14.75;;;9.15;;
12878;SDS011;20617;49.476;10.986;2023-02-22T00:24:16;13.68;;;9.25;;
12878;SDS011;20617;49.476;10.986;2023-02-22T00:26:26;12.00;;;8.65;;
12878;SDS011;20617;49.476;10.986;2023-02-22T00:28:30;12.27;;;9.13;;
12878;SDS011;20617;49.476;10.986;2023-02-22T00:32:44;12.75;;;8.15;;
12878;SDS011;20617;49.476;10.986;2023-02-22T00:34:50;12.23;;;8.90;;
12878;SDS011;20617;49.476;10.986;2023-02-22T00:36:58;14.52;;;8.93;;
12878;SDS011;20617;49.476;10.986;2023-02-22T00:39:04;10.30;;;7.68;;
12878;SDS011;20617;49.476;10.986;2023-02-22T00:43:18;13.48;;;8.75;;
12878;SDS011;20617;49.476;10.986;2023-02-22T00:45:23;12.30;;;8.90;;
12878;SDS011;20617;49.476;10.986;2023-02-22T00:47:29;12.13;;;9.13;;
12878;SDS011;20617;49.476;10.986;2023-02-22T00:49:34;13.32;;;9.55;;
12878;SDS011;20617;49.476;10.986;2023-02-22T00:51:40;11.70;;;8.57;;
12878;SDS011;20617;49.476;10.986;2023-02-22T00:53:45;10.98;;;8.13;;
12878;SDS011;20617;49.476;10.986;2023-02-22T00:55:50;11.32;;;9.00;;
12878;SDS011;20617;49.476;10.986;2023-02-22T00:57:59;11.95;;;8.70;;
12878;SDS011;20617;49.476;10.986;2023-02-22T01:00:05;14.20;;;9.82;;
12878;SDS011;20617;49.476;10.986;2023-02-22T01:02:15;13.07;;;10.10;;
12878;SDS011;20617;49.476;10.986;2023-02-22T01:04:21;12.98;;;9.23;;
12878;SDS011;20617;49.476;10.986;2023-02-22T01:06:26;12.73;;;9.15;;
12878;SDS011;20617;49.476;10.986;2023-02-22T01:08:32;10.85;;;8.93;;
12878;SDS011;20617;49.476;10.986;2023-02-22T01:10:37;14.05;;;9.32;;
12878;SDS011;20617;49.476;10.986;2023-02-22T01:12:42;11.93;;;8.45;;
12878;SDS011;20617;49.476;10.986;2023-02-22T01:14:50;10.45;;;8.57;;
12878;SDS011;20617;49.476;10.986;2023-02-22T01:16:58;12.32;;;9.35;;
12878;SDS011;20617;49.476;10.986;2023-02-22T01:19:03;13.68;;;9.35;;
12878;SDS011;20617;49.476;10.986;2023-02-22T01:21:09;14.80;;;9.18;;
12878;SDS011;20617;49.476;10.986;2023-02-22T01:23:15;14.88;;;9.13;;
12878;SDS011;20617;49.476;10.986;2023-02-22T01:25:21;12.25;;;9.23;;
12878;SDS011;20617;49.476;10.986;2023-02-22T01:27:28;11.68;;;8.95;;
12878;SDS011;20617;49.476;10.986;2023-02-22T01:29:32;11.82;;;8.45;;
12878;SDS011;20617;49.476;10.986;2023-02-22T01:31:43;9.45;;;7.82;;
12878;SDS011;20617;49.476;10.986;2023-02-22T01:33:56;11.63;;;8.77;;
12878;SDS011;20617;49.476;10.986;2023-02-22T01:36:01;12.68;;;8.80;;
12878;SDS011;20617;49.476;10.986;2023-02-22T01:38:12;11.50;;;8.32;;
12878;SDS011;20617;49.476;10.986;2023-02-22T01:40:18;12.45;;;8.52;;
12878;SDS011;20617;49.476;10.986;2023-02-22T01:42:26;13.55;;;9.60;;
12878;SDS011;20617;49.476;10.986;2023-02-22T01:44:33;12.20;;;8.45;;
12878;SDS011;20617;49.476;10.986;2023-02-22T01:46:43;11.18;;;8.05;;
12878;SDS011;20617;49.476;10.986;2023-02-22T01:48:48;10.57;;;8.15;;
12878;SDS011;20617;49.476;10.986;2023-02-22T01:50:59;13.32;;;9.20;;
12878;SDS011;20617;49.476;10.986;2023-02-22T01:53:12;12.45;;;8.88;;
12878;SDS011;20617;49.476;10.986;2023-02-22T01:55:19;11.68;;;8.38;;
12878;SDS011;20617;49.476;10.986;2023-02-22T01:57:25;10.55;;;7.88;;
12878;SDS011;20617;49.476;10.986;2023-02-22T01:59:35;10.00;;;7.85;;
12878;SDS011;20617;49.476;10.986;2023-02-22T02:01:46;10.38;;;7.70;;
12878;SDS011;20617;49.476;10.986;2023-02-22T02:03:51;11.65;;;8.48;;
12878;SDS011;20617;49.476;10.986;2023-02-22T02:06:01;10.70;;;8.40;;
12878;SDS011;20617;49.476;10.986;2023-02-22T02:08:10;10.00;;;8.05;;
12878;SDS011;20617;49.476;10.986;2023-02-22T02:10:20;13.23;;;7.70;;
12878;SDS011;20617;49.476;10.986;2023-02-22T02:12:26;11.30;;;8.55;;
12878;SDS011;20617;49.476;10.986;2023-02-22T02:14:33;10.02;;;8.10;;
12878;SDS011;20617;49.476;10.986;2023-02-22T02:16:41;11.77;;;8.27;;
12878;SDS011;20617;49.476;10.986;2023-02-22T02:18:51;13.02;;;8.18;;
12878;SDS011;20617;49.476;10.986;2023-02-22T02:21:10;10.77;;;8.48;;
12878;SDS011;20617;49.476;10.986;2023-02-22T02:24:00;11.88;;;8.30;;
12878;SDS011;20617;49.476;10.986;2023-02-22T02:26:28;10.48;;;8.02;;
12878;SDS011;20617;49.476;10.986;2023-02-22T02:34:15;9.98;;;7.60;;
12878;SDS011;20617;49.476;10.986;2023-02-22T02:36:26;10.38;;;7.28;;
12878;SDS011;20617;49.476;10.986;2023-02-22T02:38:37;9.15;;;7.40;;
12878;SDS011;20617;49.476;10.986;2023-02-22T02:40:48;10.23;;;7.30;;
12878;SDS011;20617;49.476;10.986;2023-02-22T02:43:03;9.63;;;6.97;;
12878;SDS011;20617;49.476;10.986;2023-02-22T02:45:15;8.35;;;6.78;;
12878;SDS011;20617;49.476;10.986;2023-02-22T02:47:24;9.65;;;8.07;;
12878;SDS011;20617;49.476;10.986;2023-02-22T02:49:36;8.32;;;7.35;;
12878;SDS011;20617;49.476;10.986;2023-02-22T02:51:47;10.30;;;7.65;;
12878;SDS011;20617;49.476;10.986;2023-02-22T02:53:55;9.13;;;6.93;;
12878;SDS011;20617;49.476;10.986;2023-02-22T02:56:01;9.60;;;7.30;;
12878;SDS011;20617;49.476;10.986;2023-02-22T03:00:12;7.63;;;6.63;;
12878;SDS011;20617;49.476;10.986;2023-02-22T03:02:27;8.77;;;7.30;;
12878;SDS011;20617;49.476;10.986;2023-02-22T03:04:56;9.10;;;7.38;;
12878;SDS011;20617;49.476;10.986;2023-02-22T03:07:18;8.95;;;6.97;;
12878;SDS011;20617;49.476;10.986;2023-02-22T03:09:35;8.15;;;7.03;;
12878;SDS011;20617;49.476;10.986;2023-02-22T03:11:50;9.35;;;6.85;;
12878;SDS011;20617;49.476;10.986;2023-02-22T03:14:05;9.20;;;7.40;;
12878;SDS011;20617;49.476;10.986;2023-02-22T03:16:20;8.50;;;6.82;;
12878;SDS011;20617;49.476;10.986;2023-02-22T03:18:35;8.52;;;7.10;;
12878;SDS011;20617;49.476;10.986;2023-02-22T03:20:56;8.23;;;7.28;;
12878;SDS011;20617;49.476;10.986;2023-02-22T03:23:05;8.40;;;7.40;;
12878;SDS011;20617;49.476;10.986;2023-02-22T03:25:16;8.02;;;6.88;;
12878;SDS011;20617;49.476;10.986;2023-02-22T03:27:33;7.60;;;6.80;;
12878;SDS011;20617;49.476;10.986;2023-02-22T03:29:45;8.60;;;7.20;;
12878;SDS011;20617;49.476;10.986;2023-02-22T03:31:55;9.13;;;8.02;;
12878;SDS011;20617;49.476;10.986;2023-02-22T03:34:08;9.13;;;7.50;;
12878;SDS011;20617;49.476;10.986;2023-02-22T03:36:20;9.93;;;7.82;;
12878;SDS011;20617;49.476;10.986;2023-02-22T03:38:28;9.75;;;8.20;;
12878;SDS011;20617;49.476;10.986;2023-02-22T03:40:40;10.05;;;8.18;;
12878;SDS011;20617;49.476;10.986;2023-02-22T03:42:47;10.02;;;8.30;;
12878;SDS011;20617;49.476;10.986;2023-02-22T03:44:58;9.70;;;7.90;;
12878;SDS011;20617;49.476;10.986;2023-02-22T03:47:08;9.38;;;7.47;;
12878;SDS011;20617;49.476;10.986;2023-02-22T03:49:17;10.48;;;8.05;;
12878;SDS011;20617;49.476;10.986;2023-02-22T03:51:33;10.13;;;7.68;;
12878;SDS011;20617;49.476;10.986;2023-02-22T03:53:40;10.52;;;7.95;;
12878;SDS011;20617;49.476;10.986;2023-02-22T03:55:46;12.85;;;9.48;;
12878;SDS011;20617;49.476;10.986;2023-02-22T03:57:56;10.35;;;8.60;;
12878;SDS011;20617;49.476;10.986;2023-02-22T04:00:06;10.95;;;7.97;;
12878;SDS011;20617;49.476;10.986;2023-02-22T04:02:13;9.10;;;7.07;;
12878;SDS011;20617;49.476;10.986;2023-02-22T04:04:20;8.85;;;6.93;;
12878;SDS011;20617;49.476;10.986;2023-02-22T04:06:25;11.15;;;7.93;;
12878;SDS011;20617;49.476;10.986;2023-02-22T04:08:35;10.43;;;7.50;;
12878;SDS011;20617;49.476;10.986;2023-02-22T04:10:40;9.35;;;7.03;;
12878;SDS011;20617;49.476;10.986;2023-02-22T04:12:44;9.95;;;7.22;;
12878;SDS011;20617;49.476;10.986;2023-02-22T04:14:51;8.93;;;6.90;;
12878;SDS011;20617;49.476;10.986;2023-02-22T04:16:57;7.93;;;6.78;;
12878;SDS011;20617;49.476;10.986;2023-02-22T04:19:02;8.85;;;6.60;;
12878;SDS011;20617;49.476;10.986;2023-02-22T04:21:08;9.18;;;7.13;;
12878;SDS011;20617;49.476;10.986;2023-02-22T04:23:19;9.30;;;7.03;;
12878;SDS011;20617;49.476;10.986;2023-02-22T04:25:27;8.00;;;6.38;;
12878;SDS011;20617;49.476;10.986;2023-02-22T04:27:41;10.18;;;7.38;;
12878;SDS011;20617;49.476;10.986;2023-02-22T04:29:46;9.02;;;6.78;;
12878;SDS011;20617;49.476;10.986;2023-02-22T04:31:51;9.05;;;7.35;;
12878;SDS011;20617;49.476;10.986;2023-02-22T04:33:56;9.65;;;6.82;;
12878;SDS011;20617;49.476;10.986;2023-02-22T04:36:05;8.75;;;6.72;;
12878;SDS011;20617;49.476;10.986;2023-02-22T04:38:12;10.10;;;6.90;;
12878;SDS011;20617;49.476;10.986;2023-02-22T04:40:17;7.50;;;6.25;;
12878;SDS011;20617;49.476;10.986;2023-02-22T04:44:29;9.80;;;7.10;;
12878;SDS011;20617;49.476;10.986;2023-02-22T04:46:34;9.27;;;7.03;;
12878;SDS011;20617;49.476;10.986;2023-02-22T04:48:39;8.15;;;6.90;;
12878;SDS011;20617;49.476;10.986;2023-02-22T04:50:44;9.13;;;6.93;;
12878;SDS011;20617;49.476;10.986;2023-02-22T04:52:52;9.32;;;6.72;;
12878;SDS011;20617;49.476;10.986;2023-02-22T04:54:58;9.88;;;7.03;;
12878;SDS011;20617;49.476;10.986;2023-02-22T04:59:13;9.73;;;7.35;;
12878;SDS011;20617;49.476;10.986;2023-02-22T05:01:29;7.78;;;6.18;;
12878;SDS011;20617;49.476;10.986;2023-02-22T05:03:36;8.15;;;6.35;;
12878;SDS011;20617;49.476;10.986;2023-02-22T05:05:41;8.20;;;6.53;;
12878;SDS011;20617;49.476;10.986;2023-02-22T05:07:47;10.23;;;7.22;;
12878;SDS011;20617;49.476;10.986;2023-02-22T05:09:54;9.75;;;7.72;;
12878;SDS011;20617;49.476;10.986;2023-02-22T05:11:59;9.95;;;7.78;;
12878;SDS011;20617;49.476;10.986;2023-02-22T05:14:04;10.90;;;7.80;;
12878;SDS011;20617;49.476;10.986;2023-02-22T05:16:12;10.15;;;7.35;;
12878;SDS011;20617;49.476;10.986;2023-02-22T05:18:16;9.07;;;7.07;;
12878;SDS011;20617;49.476;10.986;2023-02-22T05:20:22;8.57;;;7.03;;
12878;SDS011;20617;49.476;10.986;2023-02-22T05:22:30;10.27;;;7.03;;
12878;SDS011;20617;49.476;10.986;2023-02-22T05:24:36;8.75;;;6.70;;
12878;SDS011;20617;49.476;10.986;2023-02-22T05:26:41;10.32;;;7.22;;
12878;SDS011;20617;49.476;10.986;2023-02-22T05:28:46;10.30;;;7.00;;
12878;SDS011;20617;49.476;10.986;2023-02-22T05:30:51;11.93;;;8.55;;
12878;SDS011;20617;49.476;10.986;2023-02-22T05:32:59;10.00;;;7.38;;
12878;SDS011;20617;49.476;10.986;2023-02-22T05:35:04;9.32;;;7.93;;
12878;SDS011;20617;49.476;10.986;2023-02-22T05:37:10;8.98;;;7.88;;
12878;SDS011;20617;49.476;10.986;2023-02-22T05:39:17;9.13;;;7.35;;
12878;SDS011;20617;49.476;10.986;2023-02-22T05:41:22;12.10;;;7.90;;
12878;SDS011;20617;49.476;10.986;2023-02-22T05:43:27;9.18;;;7.30;;
12878;SDS011;20617;49.476;10.986;2023-02-22T05:45:32;8.95;;;6.93;;
12878;SDS011;20617;49.476;10.986;2023-02-22T05:47:40;9.55;;;7.68;;
12878;SDS011;20617;49.476;10.986;2023-02-22T05:49:47;9.25;;;6.72;;
12878;SDS011;20617;49.476;10.986;2023-02-22T05:51:52;8.27;;;6.07;;
12878;SDS011;20617;49.476;10.986;2023-02-22T05:54:00;9.93;;;7.50;;
12878;SDS011;20617;49.476;10.986;2023-02-22T05:56:05;10.48;;;8.30;;
12878;SDS011;20617;49.476;10.986;2023-02-22T05:58:10;10.85;;;8.02;;
12878;SDS011;20617;49.476;10.986;2023-02-22T06:00:16;13.32;;;8.43;;
12878;SDS011;20617;49.476;10.986;2023-02-22T06:02:28;11.90;;;8.90;;
12878;SDS011;20617;49.476;10.986;2023-02-22T06:04:33;11.93;;;7.95;;
12878;SDS011;20617;49.476;10.986;2023-02-22T06:06:41;11.23;;;8.50;;
12878;SDS011;20617;49.476;10.986;2023-02-22T06:08:46;9.90;;;7.45;;
12878;SDS011;20617;49.476;10.986;2023-02-22T06:10:51;9.10;;;7.32;;
12878;SDS011;20617;49.476;10.986;2023-02-22T06:12:56;9.52;;;7.20;;
12878;SDS011;20617;49.476;10.986;2023-02-22T06:15:02;10.77;;;7.38;;
12878;SDS011;20617;49.476;10.986;2023-02-22T06:17:07;10.18;;;7.28;;
12878;SDS011;20617;49.476;10.986;2023-02-22T06:19:12;8.95;;;6.90;;
12878;SDS011;20617;49.476;10.986;2023-02-22T06:21:17;9.38;;;7.30;;
12878;SDS011;20617;49.476;10.986;2023-02-22T06:23:25;11.10;;;7.50;;
12878;SDS011;20617;49.476;10.986;2023-02-22T06:25:30;10.68;;;7.22;;
12878;SDS011;20617;49.476;10.986;2023-02-22T06:27:35;9.55;;;7.30;;
12878;SDS011;20617;49.476;10.986;2023-02-22T06:29:40;10.27;;;7.20;;
12878;SDS011;20617;49.476;10.986;2023-02-22T06:31:48;10.70;;;7.75;;
12878;SDS011;20617;49.476;10.986;2023-02-22T06:33:54;10.23;;;8.10;;
12878;SDS011;20617;49.476;10.986;2023-02-22T06:35:58;12.10;;;8.02;;
12878;SDS011;20617;49.476;10.986;2023-02-22T06:38:03;11.35;;;7.60;;
12878;SDS011;20617;49.476;10.986;2023-02-22T06:40:11;15.48;;;8.80;;
12878;SDS011;20617;49.476;10.986;2023-02-22T06:42:16;11.45;;;7.80;;
12878;SDS011;20617;49.476;10.986;2023-02-22T06:44:21;10.45;;;7.60;;
12878;SDS011;20617;49.476;10.986;2023-02-22T06:46:26;11.20;;;8.45;;
12878;SDS011;20617;49.476;10.986;2023-02-22T06:48:31;11.52;;;8.63;;
12878;SDS011;20617;49.476;10.986;2023-02-22T06:50:36;10.95;;;8.10;;
12878;SDS011;20617;49.476;10.986;2023-02-22T06:52:41;10.45;;;7.68;;
12878;SDS011;20617;49.476;10.986;2023-02-22T06:54:48;10.60;;;7.75;;
12878;SDS011;20617;49.476;10.986;2023-02-22T06:56:56;10.93;;;8.13;;
12878;SDS011;20617;49.476;10.986;2023-02-22T06:59:01;11.27;;;7.70;;
12878;SDS011;20617;49.476;10.986;2023-02-22T07:01:07;10.45;;;7.63;;
12878;SDS011;20617;49.476;10.986;2023-02-22T07:03:12;13.15;;;8.48;;
12878;SDS011;20617;49.476;10.986;2023-02-22T07:05:18;10.30;;;8.35;;
12878;SDS011;20617;49.476;10.986;2023-02-22T07:07:24;10.85;;;8.32;;
12878;SDS011;20617;49.476;10.986;2023-02-22T07:09:30;13.35;;;9.60;;
12878;SDS011;20617;49.476;10.986;2023-02-22T07:11:37;13.48;;;9.52;;
12878;SDS011;20617;49.476;10.986;2023-02-22T07:13:46;12.95;;;7.95;;
12878;SDS011;20617;49.476;10.986;2023-02-22T07:15:52;10.85;;;7.63;;
12878;SDS011;20617;49.476;10.986;2023-02-22T07:17:59;12.98;;;7.97;;
12878;SDS011;20617;49.476;10.986;2023-02-22T07:22:12;14.80;;;9.20;;
12878;SDS011;20617;49.476;10.986;2023-02-22T07:24:18;15.55;;;8.77;;
12878;SDS011;20617;49.476;10.986;2023-02-22T07:26:23;16.27;;;9.48;;
12878;SDS011;20617;49.476;10.986;2023-02-22T07:28:28;13.05;;;8.43;;
12878;SDS011;20617;49.476;10.986;2023-02-22T07:30:36;11.70;;;8.05;;
12878;SDS011;20617;49.476;10.986;2023-02-22T07:32:41;15.30;;;7.50;;
12878;SDS011;20617;49.476;10.986;2023-02-22T07:36:51;16.90;;;8.48;;
12878;SDS011;20617;49.476;10.986;2023-02-22T07:38:56;12.75;;;7.57;;
12878;SDS011;20617;49.476;10.986;2023-02-22T07:41:01;12.35;;;7.95;;
12878;SDS011;20617;49.476;10.986;2023-02-22T07:43:12;14.38;;;8.82;;
12878;SDS011;20617;49.476;10.986;2023-02-22T07:45:18;11.75;;;8.05;;
12878;SDS011;20617;49.476;10.986;2023-02-22T07:47:27;14.10;;;8.13;;
12878;SDS011;20617;49.476;10.986;2023-02-22T07:49:32;15.07;;;8.52;;
12878;SDS011;20617;49.476;10.986;2023-02-22T07:51:37;11.00;;;8.07;;
12878;SDS011;20617;49.476;10.986;2023-02-22T07:53:41;11.07;;;7.65;;
12878;SDS011;20617;49.476;10.986;2023-02-22T07:55:46;13.75;;;8.38;;
12878;SDS011;20617;49.476;10.986;2023-02-22T07:57:53;12.02;;;8.15;;
12878;SDS011;20617;49.476;10.986;2023-02-22T07:59:59;11.02;;;7.38;;
12878;SDS011;20617;49.476;10.986;2023-02-22T08:02:13;10.32;;;7.57;;
12878;SDS011;20617;49.476;10.986;2023-02-22T08:04:22;11.07;;;7.40;;
12878;SDS011;20617;49.476;10.986;2023-02-22T08:06:27;13.32;;;9.32;;
12878;SDS011;20617;49.476;10.986;2023-02-22T08:08:32;9.52;;;7.88;;
12878;SDS011;20617;49.476;10.986;2023-02-22T08:10:37;11.38;;;8.05;;
12878;SDS011;20617;49.476;10.986;2023-02-22T08:12:42;13.32;;;7.55;;
12878;SDS011;20617;49.476;10.986;2023-02-22T08:14:47;11.13;;;7.93;;
12878;SDS011;20617;49.476;10.986;2023-02-22T08:16:52;10.70;;;9.20;;
12878;SDS011;20617;49.476;10.986;2023-02-22T08:18:58;11.32;;;7.38;;
12878;SDS011;20617;49.476;10.986;2023-02-22T08:21:05;12.48;;;7.70;;
12878;SDS011;20617;49.476;10.986;2023-02-22T08:23:11;13.80;;;9.05;;
12878;SDS011;20617;49.476;10.986;2023-02-22T08:25:18;12.85;;;7.90;;
12878;SDS011;20617;49.476;10.986;2023-02-22T08:27:26;11.10;;;8.88;;
12878;SDS011;20617;49.476;10.986;2023-02-22T08:29:34;11.30;;;8.15;;
12878;SDS011;20617;49.476;10.986;2023-02-22T08:31:39;11.55;;;8.73;;
12878;SDS011;20617;49.476;10.986;2023-02-22T08:33:45;14.77;;;8.80;;
12878;SDS011;20617;49.476;10.986;2023-02-22T08:35:52;11.85;;;9.13;;
12878;SDS011;20617;49.476;10.986;2023-02-22T08:38:00;13.70;;;9.88;;
12878;SDS011;20617;49.476;10.986;2023-02-22T08:40:08;12.23;;;9.45;;
12878;SDS011;20617;49.476;10.986;2023-02-22T08:42:15;14.20;;;8.68;;
12878;SDS011;20617;49.476;10.986;2023-02-22T08:44:20;12.70;;;9.07;;
12878;SDS011;20617;49.476;10.986;2023-02-22T08:46:25;21.58;;;9.75;;
12878;SDS011;20617;49.476;10.986;2023-02-22T08:48:29;13.93;;;9.60;;
12878;SDS011;20617;49.476;10.986;2023-02-22T08:50:34;16.00;;;8.98;;
12878;SDS011;20617;49.476;10.986;2023-02-22T08:52:42;14.65;;;9.38;;
12878;SDS011;20617;49.476;10.986;2023-02-22T08:54:49;16.98;;;9.10;;
12878;SDS011;20617;49.476;10.986;2023-02-22T08:56:54;13.40;;;9.32;;
12878;SDS011;20617;49.476;10.986;2023-02-22T08:58:59;14.80;;;10.55;;
12878;SDS011;20617;49.476;10.986;2023-02-22T09:01:04;15.40;;;9.88;;
12878;SDS011;20617;49.476;10.986;2023-02-22T09:03:10;22.13;;;11.13;;
12878;SDS011;20617;49.476;10.986;2023-02-22T09:05:17;17.90;;;11.25;;
12878;SDS011;20617;49.476;10.986;2023-02-22T09:09:26;15.98;;;9.63;;
12878;SDS011;20617;49.476;10.986;2023-02-22T09:11:34;18.08;;;10.18;;
12878;SDS011;20617;49.476;10.986;2023-02-22T09:13:39;13.52;;;9.10;;
12878;SDS011;20617;49.476;10.986;2023-02-22T09:15:44;20.10;;;10.77;;
12878;SDS011;20617;49.476;10.986;2023-02-22T09:17:49;14.60;;;10.88;;
12878;SDS011;20617;49.476;10.986;2023-02-22T09:19:57;14.50;;;9.52;;
12878;SDS011;20617;49.476;10.986;2023-02-22T09:22:02;16.17;;;10.10;;
12878;SDS011;20617;49.476;10.986;2023-02-22T09:24:07;18.90;;;10.80;;
12878;SDS011;20617;49.476;10.986;2023-02-22T09:28:20;15.32;;;10.63;;
12878;SDS011;20617;49.476;10.986;2023-02-22T09:30:26;13.43;;;9.90;;
12878;SDS011;20617;49.476;10.986;2023-02-22T09:32:33;14.52;;;9.88;;
12878;SDS011;20617;49.476;10.986;2023-02-22T09:34:40;15.43;;;10.65;;
12878;SDS011;20617;49.476;10.986;2023-02-22T09:36:46;18.15;;;10.50;;
12878;SDS011;20617;49.476;10.986;2023-02-22T09:38:52;16.08;;;11.18;;
12878;SDS011;20617;49.476;10.986;2023-02-22T09:41:01;11.40;;;9.43;;
12878;SDS011;20617;49.476;10.986;2023-02-22T09:43:23;17.70;;;10.43;;
12878;SDS011;20617;49.476;10.986;2023-02-22T09:45:37;16.55;;;10.48;;
12878;SDS011;20617;49.476;10.986;2023-02-22T09:47:55;12.20;;;8.95;;
12878;SDS011;20617;49.476;10.986;2023-02-22T09:50:20;12.10;;;9.10;;
12878;SDS011;20617;49.476;10.986;2023-02-22T09:52:29;12.95;;;9.18;;
12878;SDS011;20617;49.476;10.986;2023-02-22T09:54:37;14.15;;;8.70;;
12878;SDS011;20617;49.476;10.986;2023-02-22T09:56:47;14.25;;;9.73;;
12878;SDS011;20617;49.476;10.986;2023-02-22T09:59:01;12.20;;;7.90;;
12878;SDS011;20617;49.476;10.986;2023-02-22T10:01:18;11.88;;;8.63;;
12878;SDS011;20617;49.476;10.986;2023-02-22T10:03:31;10.95;;;8.07;;
12878;SDS011;20617;49.476;10.986;2023-02-22T10:05:40;11.00;;;8.55;;
12878;SDS011;20617;49.476;10.986;2023-02-22T10:07:50;13.30;;;8.90;;
12878;SDS011;20617;49.476;10.986;2023-02-22T10:10:01;13.65;;;9.05;;
12878;SDS011;20617;49.476;10.986;2023-02-22T10:12:08;12.30;;;8.63;;
12878;SDS011;20617;49.476;10.986;2023-02-22T10:16:53;12.85;;;9.15;;
12878;SDS011;20617;49.476;10.986;2023-02-22T10:19:06;10.88;;;8.27;;
12878;SDS011;20617;49.476;10.986;2023-02-22T10:21:27;10.43;;;7.82;;
12878;SDS011;20617;49.476;10.986;2023-02-22T10:23:46;9.80;;;8.20;;
12878;SDS011;20617;49.476;10.986;2023-02-22T10:25:59;10.40;;;7.60;;
12878;SDS011;20617;49.476;10.986;2023-02-22T10:28:17;9.90;;;7.10;;
12878;SDS011;20617;49.476;10.986;2023-02-22T10:30:29;8.55;;;6.68;;
12878;SDS011;20617;49.476;10.986;2023-02-22T10:32:40;9.30;;;7.30;;
12878;SDS011;20617;49.476;10.986;2023-02-22T10:34:49;9.02;;;7.15;;
12878;SDS011;20617;49.476;10.986;2023-02-22T10:36:58;12.27;;;7.18;;
12878;SDS011;20617;49.476;10.986;2023-02-22T10:39:22;11.48;;;7.30;;
12878;SDS011;20617;49.476;10.986;2023-02-22T10:41:32;10.40;;;8.23;;
12878;SDS011;20617;49.476;10.986;2023-02-22T10:43:40;9.70;;;7.68;;
12878;SDS011;20617;49.476;10.986;2023-02-22T10:45:50;13.15;;;7.90;;
12878;SDS011;20617;49.476;10.986;2023-02-22T10:47:57;8.98;;;7.40;;
12878;SDS011;20617;49.476;10.986;2023-02-22T10:50:11;9.63;;;6.78;;
12878;SDS011;20617;49.476;10.986;2023-02-22T10:52:18;7.93;;;6.25;;
12878;SDS011;20617;49.476;10.986;2023-02-22T10:54:29;10.93;;;7.95;;
12878;SDS011;20617;49.476;10.986;2023-02-22T10:56:43;10.52;;;7.13;;
12878;SDS011;20617;49.476;10.986;2023-02-22T10:58:51;8.68;;;6.65;;
12878;SDS011;20617;49.476;10.986;2023-02-22T11:01:01;9.68;;;7.20;;
12878;SDS011;20617;49.476;10.986;2023-02-22T11:03:22;12.85;;;7.45;;
12878;SDS011;20617;49.476;10.986;2023-02-22T11:05:29;9.32;;;7.03;;
12878;SDS011;20617;49.476;10.986;2023-02-22T11:07:37;9.95;;;7.15;;
12878;SDS011;20617;49.476;10.986;2023-02-22T11:09:47;8.82;;;7.45;;
12878;SDS011;20617;49.476;10.986;2023-02-22T11:12:06;8.40;;;7.10;;
12878;SDS011;20617;49.476;10.986;2023-02-22T11:14:17;9.23;;;6.57;;
12878;SDS011;20617;49.476;10.986;2023-02-22T11:16:32;8.98;;;6.25;;
12878;SDS011;20617;49.476;10.986;2023-02-22T11:18:41;7.88;;;6.28;;
12878;SDS011;20617;49.476;10.986;2023-02-22T11:20:46;7.07;;;5.93;;
12878;SDS011;20617;49.476;10.986;2023-02-22T11:22:51;7.18;;;5.43;;
12878;SDS011;20617;49.476;10.986;2023-02-22T11:24:59;8.45;;;6.53;;
12878;SDS011;20617;49.476;10.986;2023-02-22T11:27:08;8.38;;;6.65;;
12878;SDS011;20617;49.476;10.986;2023-02-22T11:29:17;10.85;;;6.63;;
12878;SDS011;20617;49.476;10.986;2023-02-22T11:31:25;8.60;;;6.68;;
12878;SDS011;20617;49.476;10.986;2023-02-22T11:33:34;7.50;;;5.75;;
12878;SDS011;20617;49.476;10.986;2023-02-22T11:35:47;7.60;;;6.20;;
12878;SDS011;20617;49.476;10.986;2023-02-22T11:38:02;7.95;;;5.97;;
12878;SDS011;20617;49.476;10.986;2023-02-22T11:40:14;8.20;;;5.00;;
12878;SDS011;20617;49.476;10.986;2023-02-22T11:42:23;9.65;;;5.80;;
12878;SDS011;20617;49.476;10.986;2023-02-22T11:44:30;7.63;;;5.30;;
12878;SDS011;20617;49.476;10.986;2023-02-22T11:46:35;5.82;;;5.22;;
12878;SDS011;20617;49.476;10.986;2023-02-22T11:48:44;8.23;;;5.57;;
12878;SDS011;20617;49.476;10.986;2023-02-22T11:51:09;7.32;;;5.05;;
12878;SDS011;20617;49.476;10.986;2023-02-22T11:53:24;7.20;;;5.25;;
12878;SDS011;20617;49.476;10.986;2023-02-22T11:55:33;6.65;;;5.88;;
12878;SDS011;20617;49.476;10.986;2023-02-22T11:57:46;7.90;;;5.85;;
12878;SDS011;20617;49.476;10.986;2023-02-22T12:00:03;8.45;;;6.07;;
12878;SDS011;20617;49.476;10.986;2023-02-22T12:02:27;7.18;;;6.20;;
12878;SDS011;20617;49.476;10.986;2023-02-22T12:05:03;6.72;;;5.25;;
12878;SDS011;20617;49.476;10.986;2023-02-22T12:07:25;8.32;;;6.43;;
12878;SDS011;20617;49.476;10.986;2023-02-22T12:09:41;7.32;;;5.28;;
12878;SDS011;20617;49.476;10.986;2023-02-22T12:11:55;7.57;;;5.65;;
12878;SDS011;20617;49.476;10.986;2023-02-22T12:14:10;7.28;;;4.70;;
12878;SDS011;20617;49.476;10.986;2023-02-22T12:16:30;6.65;;;5.00;;
12878;SDS011;20617;49.476;10.986;2023-02-22T12:18:53;7.60;;;5.43;;
12878;SDS011;20617;49.476;10.986;2023-02-22T12:21:15;5.78;;;4.50;;
12878;SDS011;20617;49.476;10.986;2023-02-22T12:23:24;9.07;;;4.78;;
12878;SDS011;20617;49.476;10.986;2023-02-22T12:25:35;8.48;;;5.38;;
12878;SDS011;20617;49.476;10.986;2023-02-22T12:27:44;5.50;;;4.45;;
12878;SDS011;20617;49.476;10.986;2023-02-22T12:29:53;5.70;;;4.30;;
12878;SDS011;20617;49.476;10.986;2023-02-22T12:32:03;4.70;;;4.03;;
12878;SDS011;20617;49.476;10.986;2023-02-22T12:34:12;7.28;;;5.55;;
12878;SDS011;20617;49.476;10.986;2023-02-22T12:36:33;7.05;;;5.45;;
12878;SDS011;20617;49.476;10.986;2023-02-22T12:38:43;5.78;;;4.53;;
12878;SDS011;20617;49.476;10.986;2023-02-22T12:40:58;6.82;;;5.20;;
12878;SDS011;20617;49.476;10.986;2023-02-22T12:43:11;8.65;;;4.90;;
12878;SDS011;20617;49.476;10.986;2023-02-22T12:45:25;6.82;;;5.00;;
12878;SDS011;20617;49.476;10.986;2023-02-22T12:47:36;6.28;;;4.85;;
12878;SDS011;20617;49.476;10.986;2023-02-22T12:49:47;5.53;;;4.18;;
12878;SDS011;20617;49.476;10.986;2023-02-22T12:52:02;5.50;;;4.60;;
12878;SDS011;20617;49.476;10.986;2023-02-22T12:54:24;7.03;;;5.45;;
12878;SDS011;20617;49.476;10.986;2023-02-22T12:56:35;7.05;;;4.68;;
12878;SDS011;20617;49.476;10.986;2023-02-22T12:58:46;8.27;;;5.30;;
12878;SDS011;20617;49.476;10.986;2023-02-22T13:00:58;7.90;;;5.35;;
12878;SDS011;20617;49.476;10.986;2023-02-22T13:03:16;6.47;;;4.32;;
12878;SDS011;20617;49.476;10.986;2023-02-22T13:05:32;5.63;;;4.28;;